FLJ124 EGPH-EGPD
Flight info
| Callsign | FLJ124 |
|---|---|
| Flight time | 0h 36m |
| Altitude | 19000 |
| Route | GRICE P600 ADN |
| Aircraft | PC12/L-SDFGRWY/S |
Departure
| Time | 2026-04-22 19:13 |
|---|---|
| Airport | Edinburgh Airport (EGPH) |
Arrival
| Time | 2026-04-22 19:49 |
|---|---|
| Airport | Aberdeen International Airport (EGPD) |
| Time | Latitude | Longitude | Altitude | Speed | Heading |
|---|---|---|---|---|---|
| 2026-04-22 18:41 | 55.94743 | -3.34618 | 103 ft | 0 kts | 149° |
| 2026-04-22 18:42 | 55.94742 | -3.34618 | 103 ft | 0 kts | 335° |
| 2026-04-22 18:59 | 55.94743 | -3.34618 | 103 ft | 0 kts | 328° |
| 2026-04-22 19:00 | 55.94748 | -3.34624 | 103 ft | 2 kts | 328° |
| 2026-04-22 19:00 | 55.94778 | -3.34661 | 103 ft | 7 kts | 308° |
| 2026-04-22 19:00 | 55.94762 | -3.34757 | 103 ft | 9 kts | 242° |
| 2026-04-22 19:00 | 55.94786 | -3.34826 | 103 ft | 8 kts | 326° |
| 2026-04-22 19:01 | 55.94818 | -3.34919 | 103 ft | 11 kts | 299° |
| 2026-04-22 19:01 | 55.94863 | -3.35060 | 103 ft | 15 kts | 301° |
| 2026-04-22 19:01 | 55.94916 | -3.35233 | 103 ft | 17 kts | 298° |
| 2026-04-22 19:01 | 55.94975 | -3.35431 | 103 ft | 19 kts | 299° |
| 2026-04-22 19:02 | 55.95037 | -3.35635 | 103 ft | 15 kts | 300° |
| 2026-04-22 19:02 | 55.95094 | -3.35797 | 103 ft | 14 kts | 317° |
| 2026-04-22 19:02 | 55.95150 | -3.35931 | 103 ft | 15 kts | 330° |
| 2026-04-22 19:02 | 55.95214 | -3.36035 | 103 ft | 11 kts | 264° |
| 2026-04-22 19:03 | 55.95170 | -3.36170 | 103 ft | 15 kts | 237° |
| 2026-04-22 19:03 | 55.95108 | -3.36360 | 103 ft | 20 kts | 242° |
| 2026-04-22 19:03 | 55.95030 | -3.36591 | 103 ft | 23 kts | 236° |
| 2026-04-22 19:03 | 55.94940 | -3.36856 | 103 ft | 26 kts | 238° |
| 2026-04-22 19:04 | 55.94843 | -3.37142 | 103 ft | 23 kts | 240° |
| 2026-04-22 19:04 | 55.94754 | -3.37404 | 103 ft | 25 kts | 239° |
| 2026-04-22 19:04 | 55.94674 | -3.37640 | 103 ft | 21 kts | 239° |
| 2026-04-22 19:04 | 55.94609 | -3.37833 | 103 ft | 16 kts | 239° |
| 2026-04-22 19:05 | 55.94599 | -3.37956 | 103 ft | 10 kts | 319° |
| 2026-04-22 19:05 | 55.94623 | -3.37983 | 103 ft | 0 kts | 331° |
| 2026-04-22 19:11 | 55.94625 | -3.37984 | 103 ft | 1 kts | 334° |
| 2026-04-22 19:11 | 55.94652 | -3.38012 | 103 ft | 8 kts | 333° |
| 2026-04-22 19:11 | 55.94733 | -3.38043 | 106 ft | 2 kts | 64° |
| 2026-04-22 19:11 | 55.94739 | -3.38019 | 106 ft | 0 kts | 59° |
| 2026-04-22 19:12 | 55.94795 | -3.37853 | 106 ft | 47 kts | 58° |
| 2026-04-22 19:12 | 55.94966 | -3.37336 | 103 ft | 95 kts | 53° |
| 2026-04-22 19:12 | 55.95454 | -3.35746 | 515 ft | 115 kts | 72° |
| 2026-04-22 19:13 | 55.95868 | -3.34442 | 955 ft | 124 kts | 67° |
| 2026-04-22 19:13 | 55.96228 | -3.33608 | 1289 ft | 126 kts | 61° |
| 2026-04-22 19:13 | 55.96845 | -3.32460 | 1708 ft | 132 kts | 59° |
| 2026-04-22 19:13 | 55.97551 | -3.31354 | 2168 ft | 137 kts | 49° |
| 2026-04-22 19:14 | 55.98389 | -3.30530 | 2667 ft | 139 kts | 32° |
| 2026-04-22 19:14 | 55.99342 | -3.29997 | 3091 ft | 147 kts | 25° |
| 2026-04-22 19:14 | 56.00298 | -3.29340 | 3583 ft | 148 kts | 32° |
| 2026-04-22 19:14 | 56.01381 | -3.29205 | 3913 ft | 170 kts | 351° |
| 2026-04-22 19:15 | 56.02522 | -3.30042 | 4323 ft | 183 kts | 336° |
| 2026-04-22 19:15 | 56.03705 | -3.30978 | 4787 ft | 189 kts | 340° |
| 2026-04-22 19:15 | 56.04941 | -3.31853 | 5294 ft | 194 kts | 340° |
| 2026-04-22 19:15 | 56.05986 | -3.33428 | 5724 ft | 202 kts | 304° |
| 2026-04-22 19:16 | 56.06536 | -3.35703 | 6241 ft | 199 kts | 282° |
| 2026-04-22 19:16 | 56.06793 | -3.38091 | 6784 ft | 197 kts | 273° |
| 2026-04-22 19:16 | 56.06936 | -3.40526 | 7307 ft | 196 kts | 271° |
| 2026-04-22 19:16 | 56.07094 | -3.42961 | 7805 ft | 198 kts | 278° |
| 2026-04-22 19:17 | 56.07744 | -3.45163 | 8305 ft | 203 kts | 307° |
| 2026-04-22 19:17 | 56.08687 | -3.47010 | 8834 ft | 203 kts | 314° |
| 2026-04-22 19:17 | 56.09680 | -3.48825 | 9369 ft | 203 kts | 313° |
| 2026-04-22 19:17 | 56.10635 | -3.50687 | 9904 ft | 203 kts | 310° |
| 2026-04-22 19:18 | 56.11579 | -3.52577 | 10451 ft | 203 kts | 310° |
| 2026-04-22 19:18 | 56.12516 | -3.54434 | 10945 ft | 203 kts | 311° |
| 2026-04-22 19:18 | 56.13473 | -3.56313 | 11441 ft | 204 kts | 310° |
| 2026-04-22 19:18 | 56.14428 | -3.58192 | 11939 ft | 204 kts | 310° |
| 2026-04-22 19:19 | 56.15379 | -3.60071 | 12451 ft | 204 kts | 310° |
| 2026-04-22 19:19 | 56.16335 | -3.61959 | 12963 ft | 204 kts | 310° |
| 2026-04-22 19:19 | 56.17291 | -3.63847 | 13483 ft | 204 kts | 310° |
| 2026-04-22 19:19 | 56.18294 | -3.65659 | 14010 ft | 206 kts | 322° |
| 2026-04-22 19:20 | 56.19609 | -3.66652 | 14510 ft | 207 kts | 351° |
| 2026-04-22 19:20 | 56.21018 | -3.66530 | 14984 ft | 206 kts | 18° |
| 2026-04-22 19:20 | 56.22297 | -3.65421 | 15468 ft | 204 kts | 37° |
| 2026-04-22 19:20 | 56.23453 | -3.63941 | 15939 ft | 204 kts | 40° |
| 2026-04-22 19:21 | 56.24610 | -3.62441 | 16417 ft | 206 kts | 38° |
| 2026-04-22 19:21 | 56.25805 | -3.60976 | 16897 ft | 207 kts | 37° |
| 2026-04-22 19:21 | 56.26988 | -3.59539 | 17385 ft | 208 kts | 37° |
| 2026-04-22 19:21 | 56.28184 | -3.58068 | 17887 ft | 209 kts | 37° |
| 2026-04-22 19:22 | 56.29386 | -3.56581 | 18361 ft | 209 kts | 37° |
| 2026-04-22 19:22 | 56.30589 | -3.55094 | 18852 ft | 210 kts | 37° |
| 2026-04-22 19:22 | 56.31822 | -3.53566 | 19038 ft | 224 kts | 37° |
| 2026-04-22 19:22 | 56.33127 | -3.51934 | 19158 ft | 232 kts | 37° |
| 2026-04-22 19:23 | 56.34456 | -3.50280 | 19271 ft | 237 kts | 36° |
| 2026-04-22 19:23 | 56.35829 | -3.48587 | 19392 ft | 240 kts | 35° |
| 2026-04-22 19:23 | 56.37222 | -3.46873 | 19515 ft | 246 kts | 35° |
| 2026-04-22 19:23 | 56.38690 | -3.45061 | 19532 ft | 263 kts | 36° |
| 2026-04-22 19:24 | 56.40229 | -3.43130 | 19533 ft | 276 kts | 36° |
| 2026-04-22 19:24 | 56.41836 | -3.41124 | 19531 ft | 284 kts | 35° |
| 2026-04-22 19:24 | 56.43481 | -3.39081 | 19533 ft | 289 kts | 35° |
| 2026-04-22 19:24 | 56.45150 | -3.37005 | 19533 ft | 292 kts | 35° |
| 2026-04-22 19:25 | 56.46828 | -3.34916 | 19532 ft | 294 kts | 35° |
| 2026-04-22 19:25 | 56.48510 | -3.32811 | 19532 ft | 295 kts | 35° |
| 2026-04-22 19:25 | 56.50204 | -3.30693 | 19534 ft | 295 kts | 35° |
| 2026-04-22 19:25 | 56.51897 | -3.28577 | 19530 ft | 296 kts | 35° |
| 2026-04-22 19:26 | 56.53590 | -3.26454 | 19532 ft | 296 kts | 35° |
| 2026-04-22 19:26 | 56.55265 | -3.24351 | 19532 ft | 296 kts | 35° |
| 2026-04-22 19:26 | 56.56957 | -3.22222 | 19532 ft | 297 kts | 35° |
| 2026-04-22 19:26 | 56.58657 | -3.20082 | 19531 ft | 297 kts | 35° |
| 2026-04-22 19:27 | 56.60357 | -3.17942 | 19531 ft | 297 kts | 35° |
| 2026-04-22 19:27 | 56.62055 | -3.15801 | 19530 ft | 297 kts | 35° |
| 2026-04-22 19:27 | 56.63752 | -3.13658 | 19532 ft | 297 kts | 35° |
| 2026-04-22 19:27 | 56.65451 | -3.11512 | 19529 ft | 297 kts | 35° |
| 2026-04-22 19:28 | 56.67142 | -3.09368 | 19533 ft | 290 kts | 36° |
| 2026-04-22 19:28 | 56.68751 | -3.07321 | 19534 ft | 275 kts | 35° |
| 2026-04-22 19:28 | 56.70264 | -3.05413 | 19515 ft | 261 kts | 35° |
| 2026-04-22 19:28 | 56.71763 | -3.03519 | 19077 ft | 262 kts | 36° |
| 2026-04-22 19:29 | 56.73244 | -3.01637 | 18635 ft | 263 kts | 36° |
| 2026-04-22 19:29 | 56.74750 | -2.99712 | 18140 ft | 263 kts | 36° |
| 2026-04-22 19:29 | 56.76248 | -2.97803 | 17661 ft | 262 kts | 36° |
| 2026-04-22 19:29 | 56.77747 | -2.95895 | 17188 ft | 261 kts | 36° |
| 2026-04-22 19:30 | 56.78734 | -2.94637 | 16877 ft | 260 kts | 36° |
| 2026-04-22 19:30 | 56.80692 | -2.92135 | 16268 ft | 258 kts | 36° |
| 2026-04-22 19:30 | 56.82157 | -2.90263 | 15816 ft | 256 kts | 36° |
| 2026-04-22 19:30 | 56.83610 | -2.88406 | 15368 ft | 254 kts | 36° |
| 2026-04-22 19:31 | 56.85056 | -2.86556 | 14918 ft | 252 kts | 36° |
| 2026-04-22 19:31 | 56.86487 | -2.84723 | 14494 ft | 250 kts | 36° |
| 2026-04-22 19:31 | 56.87912 | -2.82898 | 14023 ft | 248 kts | 36° |
| 2026-04-22 19:31 | 56.89307 | -2.81108 | 13545 ft | 247 kts | 37° |
| 2026-04-22 19:32 | 56.90708 | -2.79308 | 13071 ft | 245 kts | 37° |
| 2026-04-22 19:32 | 56.92102 | -2.77516 | 12604 ft | 244 kts | 37° |
| 2026-04-22 19:32 | 56.93492 | -2.75725 | 12147 ft | 243 kts | 37° |
| 2026-04-22 19:32 | 56.94871 | -2.73945 | 11692 ft | 242 kts | 37° |
| 2026-04-22 19:33 | 56.96243 | -2.72174 | 11241 ft | 240 kts | 37° |
| 2026-04-22 19:33 | 56.97521 | -2.70525 | 10831 ft | 238 kts | 37° |
| 2026-04-22 19:33 | 56.98858 | -2.68795 | 10394 ft | 237 kts | 37° |
| 2026-04-22 19:33 | 57.00201 | -2.67054 | 9914 ft | 235 kts | 37° |
| 2026-04-22 19:34 | 57.01533 | -2.65329 | 9442 ft | 233 kts | 37° |
| 2026-04-22 19:34 | 57.02854 | -2.63620 | 8977 ft | 231 kts | 37° |
| 2026-04-22 19:34 | 57.04166 | -2.61924 | 8543 ft | 228 kts | 37° |
| 2026-04-22 19:34 | 57.05412 | -2.60315 | 8547 ft | 209 kts | 37° |
| 2026-04-22 19:35 | 57.06550 | -2.58843 | 8540 ft | 197 kts | 37° |
| 2026-04-22 19:35 | 57.07662 | -2.57397 | 8337 ft | 198 kts | 38° |
| 2026-04-22 19:35 | 57.08820 | -2.55875 | 7911 ft | 209 kts | 38° |
| 2026-04-22 19:35 | 57.10017 | -2.54301 | 7494 ft | 214 kts | 38° |
| 2026-04-22 19:36 | 57.11239 | -2.52710 | 7077 ft | 216 kts | 38° |
| 2026-04-22 19:36 | 57.12475 | -2.51104 | 6639 ft | 217 kts | 38° |
| 2026-04-22 19:36 | 57.13720 | -2.49542 | 6175 ft | 217 kts | 32° |
| 2026-04-22 19:36 | 57.15170 | -2.48908 | 5707 ft | 222 kts | 0° |
| 2026-04-22 19:37 | 57.16693 | -2.49308 | 5278 ft | 220 kts | 349° |
| 2026-04-22 19:37 | 57.18185 | -2.49887 | 4834 ft | 218 kts | 349° |
| 2026-04-22 19:37 | 57.19653 | -2.50474 | 4560 ft | 209 kts | 349° |
| 2026-04-22 19:37 | 57.21019 | -2.51037 | 4559 ft | 194 kts | 349° |
| 2026-04-22 19:38 | 57.22305 | -2.51573 | 4551 ft | 185 kts | 349° |
| 2026-04-22 19:38 | 57.23537 | -2.52084 | 4549 ft | 179 kts | 349° |
| 2026-04-22 19:38 | 57.24741 | -2.52586 | 4550 ft | 176 kts | 349° |
| 2026-04-22 19:38 | 57.25909 | -2.53088 | 4549 ft | 174 kts | 349° |
| 2026-04-22 19:39 | 57.27084 | -2.53596 | 4557 ft | 173 kts | 349° |
| 2026-04-22 19:39 | 57.28254 | -2.54092 | 4549 ft | 172 kts | 349° |
| 2026-04-22 19:39 | 57.29421 | -2.54597 | 4546 ft | 172 kts | 349° |
| 2026-04-22 19:39 | 57.30581 | -2.55099 | 4551 ft | 172 kts | 349° |
| 2026-04-22 19:40 | 57.31755 | -2.54944 | 4544 ft | 170 kts | 27° |
| 2026-04-22 19:40 | 57.32581 | -2.53458 | 4553 ft | 166 kts | 63° |
| 2026-04-22 19:40 | 57.33139 | -2.51602 | 4552 ft | 168 kts | 65° |
| 2026-04-22 19:40 | 57.33696 | -2.49699 | 4552 ft | 168 kts | 65° |
| 2026-04-22 19:41 | 57.34252 | -2.47784 | 4514 ft | 171 kts | 64° |
| 2026-04-22 19:41 | 57.34822 | -2.45800 | 4381 ft | 176 kts | 65° |
| 2026-04-22 19:41 | 57.35389 | -2.43819 | 4249 ft | 171 kts | 64° |
| 2026-04-22 19:41 | 57.35947 | -2.41872 | 4018 ft | 173 kts | 64° |
| 2026-04-22 19:42 | 57.36492 | -2.39957 | 4003 ft | 163 kts | 64° |
| 2026-04-22 19:42 | 57.37009 | -2.38153 | 3999 ft | 155 kts | 64° |
| 2026-04-22 19:42 | 57.37476 | -2.36390 | 3982 ft | 150 kts | 74° |
| 2026-04-22 19:42 | 57.37352 | -2.34566 | 3988 ft | 144 kts | 120° |
| 2026-04-22 19:43 | 57.35940 | -2.31899 | 3671 ft | 160 kts | 140° |
| 2026-04-22 19:43 | 57.35003 | -2.30786 | 3334 ft | 153 kts | 154° |
| 2026-04-22 19:43 | 57.34074 | -2.30058 | 3124 ft | 138 kts | 157° |
| 2026-04-22 19:44 | 57.33215 | -2.29423 | 2938 ft | 127 kts | 157° |
| 2026-04-22 19:44 | 57.32434 | -2.28848 | 2766 ft | 113 kts | 161° |
| 2026-04-22 19:44 | 57.31714 | -2.28316 | 2613 ft | 119 kts | 155° |
| 2026-04-22 19:44 | 57.30929 | -2.27689 | 2441 ft | 125 kts | 153° |
| 2026-04-22 19:45 | 57.30120 | -2.27085 | 2260 ft | 123 kts | 157° |
| 2026-04-22 19:45 | 57.29350 | -2.26551 | 2093 ft | 114 kts | 163° |
| 2026-04-22 19:45 | 57.28606 | -2.26031 | 1950 ft | 115 kts | 159° |
| 2026-04-22 19:45 | 57.27848 | -2.25491 | 1863 ft | 117 kts | 154° |
| 2026-04-22 19:46 | 57.27102 | -2.24951 | 1722 ft | 115 kts | 155° |
| 2026-04-22 19:46 | 57.26370 | -2.24359 | 1547 ft | 114 kts | 158° |
| 2026-04-22 19:46 | 57.25643 | -2.23792 | 1433 ft | 112 kts | 157° |
| 2026-04-22 19:46 | 57.24902 | -2.23289 | 1274 ft | 114 kts | 155° |
| 2026-04-22 19:47 | 57.24158 | -2.22709 | 1068 ft | 116 kts | 155° |
| 2026-04-22 19:47 | 57.23421 | -2.22138 | 847 ft | 115 kts | 158° |
| 2026-04-22 19:47 | 57.22920 | -2.21794 | 720 ft | 116 kts | 156° |
| 2026-04-22 19:47 | 57.21900 | -2.21039 | 470 ft | 117 kts | 154° |
| 2026-04-22 19:48 | 57.21149 | -2.20485 | 312 ft | 115 kts | 156° |
| 2026-04-22 19:48 | 57.20481 | -2.19988 | 246 ft | 90 kts | 154° |
| 2026-04-22 19:48 | 57.20030 | -2.19652 | 247 ft | 59 kts | 159° |
| 2026-04-22 19:48 | 57.19661 | -2.19386 | 246 ft | 52 kts | 158° |
| 2026-04-22 19:49 | 57.19435 | -2.19256 | 243 ft | 10 kts | 230° |
| 2026-04-22 19:49 | 57.19452 | -2.19403 | 243 ft | 15 kts | 321° |
| 2026-04-22 19:49 | 57.19555 | -2.19568 | 243 ft | 19 kts | 319° |
| 2026-04-22 19:49 | 57.19690 | -2.19730 | 243 ft | 26 kts | 340° |
| 2026-04-22 19:50 | 57.19861 | -2.19858 | 243 ft | 19 kts | 335° |
| 2026-04-22 19:50 | 57.19943 | -2.19999 | 243 ft | 13 kts | 316° |
| 2026-04-22 19:50 | 57.20007 | -2.20080 | 243 ft | 11 kts | 338° |